Main page
METAR-TAF:

METAR-TAF

Airports :

Maribor, Slovenia

Maribor Edvard Rusjan Airport

latitude: 46-29N, longitude: 015-41E, elevation: 264 m

Current weather observation

The report was made 16 minutes ago, at 19:00 UTC
Calm wind
Temperature 1°C
Humidity 75%
Pressure 1018 hPa
Visibility 10 km or more
no clouds below 1500 m and no cumulonimbus

METAR: LJMB 201900Z 00000KT CAVOK 01/M03 Q1018

Time: 20:16 (19:16 UTC)

Forecast

The report was made 2 hours and 16 minutes ago, at 17:00 UTC
Forecast valid from 20 at 18 UTC to 21 at 18 UTC
Wind 2 kt from variable directions
Visibility 10 km or more
no clouds below 1500 m and no cumulonimbus

TAF: LJMB 201700Z 2018/2118 VRB02KT CAVOK

Weather observations and forecasts of more than 4000 airports (METAR and TAF reports).

The available stations are represented by yellow and red dots on the map.

Hover mouse over dot to see the name of the station.

Then click to see weather observations and forecasts.

To change the map : click on the green buttons with a black cross to zoom in, on the green button with a dash to zoom out, or on the green arrows for adjacent maps.


METAR-TAF: